Time;durP1;ratioP1;P1;durP2;ratioP2;P2;SDS_P1;SDS_P2;PMS_P1;PMS_P2;Temp;Humidity;BMP_temperature;BMP_pressure;BME280_temperature;BME280_humidity;BME280_pressure;Samples;Min_cycle;Max_cycle;Signal;HPM_P1;HPM_P2
2023/05/04 00:02:52;;;;;;;5.83;3.33;;;;;;;6.94;47.01;101247.41;21047142;28;20312;-78
2023/05/04 00:12:54;;;;;;;6.23;4.07;;;;;;;6.68;47.90;101233.59;21084969;28;20222;-78
2023/05/04 00:22:56;;;;;;;6.53;4.37;;;;;;;6.01;49.53;101231.56;21067105;28;20207;-77
2023/05/04 00:32:58;;;;;;;7.13;4.50;;;;;;;6.21;49.61;101236.19;21085964;28;20182;-77
2023/05/04 00:43:00;;;;;;;5.73;4.37;;;;;;;6.22;49.87;101229.44;21081172;28;20264;-77
2023/05/04 00:53:08;;;;;;;8.40;4.17;;;;;;;5.97;50.43;101214.47;21063899;28;20190;-77
2023/05/04 01:03:10;;;;;;;5.30;4.27;;;;;;;5.89;50.77;101203.06;21062660;28;20715;-77
2023/05/04 01:13:14;;;;;;;4.63;4.17;;;;;;;5.81;51.09;101198.03;21078287;28;20288;-77
2023/05/04 01:23:16;;;;;;;6.50;4.83;;;;;;;5.50;52.12;101186.19;21008095;28;20211;-77
2023/05/04 01:33:18;;;;;;;6.90;4.43;;;;;;;5.75;51.38;101188.84;20993726;28;20534;-78
2023/05/04 01:43:20;;;;;;;10.27;4.23;;;;;;;5.73;51.12;101185.47;20993334;28;20219;-79
2023/05/04 01:53:22;;;;;;;5.93;4.50;;;;;;;5.76;51.56;101184.91;20988697;28;20245;-78
2023/05/04 02:03:25;;;;;;;7.30;4.97;;;;;;;5.16;52.27;101198.03;20991925;28;20293;-77
2023/05/04 02:13:27;;;;;;;6.13;4.90;;;;;;;5.17;52.79;101182.06;20976372;28;20250;-78
2023/05/04 02:23:29;;;;;;;5.87;4.40;;;;;;;5.16;52.95;101172.84;20858365;28;20277;-79
2023/05/04 02:33:32;;;;;;;7.20;4.27;;;;;;;5.17;53.12;101171.72;20887372;28;20269;-79
2023/05/04 02:43:35;;;;;;;7.60;4.43;;;;;;;5.00;53.12;101176.81;20890631;28;20494;-79
2023/05/04 02:53:37;;;;;;;8.60;4.83;;;;;;;4.79;53.68;101172.38;20900492;28;20266;-78
2023/05/04 03:03:39;;;;;;;7.30;4.87;;;;;;;5.04;53.07;101177.91;20912905;28;20232;-78
2023/05/04 03:13:41;;;;;;;7.60;5.13;;;;;;;5.10;52.42;101159.16;20906871;28;20220;-77
2023/05/04 03:23:43;;;;;;;7.73;4.57;;;;;;;5.21;52.71;101156.03;20945793;28;20682;-77
2023/05/04 03:33:45;;;;;;;7.03;4.63;;;;;;;4.95;53.45;101140.47;20925602;28;20191;-77
2023/05/04 03:43:48;;;;;;;6.60;5.27;;;;;;;4.72;53.63;101136.34;20969240;28;20219;-78
2023/05/04 03:53:50;;;;;;;5.50;4.87;;;;;;;4.92;53.70;101127.88;20992497;28;20172;-77
2023/05/04 04:03:53;;;;;;;8.03;5.10;;;;;;;4.66;54.30;101133.81;20883542;28;20632;-77
2023/05/04 04:13:55;;;;;;;6.10;5.13;;;;;;;4.65;54.48;101130.19;20938841;28;20227;-78
2023/05/04 04:23:57;;;;;;;7.17;5.47;;;;;;;5.15;53.83;101128.38;21035814;28;20227;-78
2023/05/04 04:33:59;;;;;;;6.83;5.60;;;;;;;4.83;54.76;101128.75;20998275;28;20571;-78
2023/05/04 04:44:02;;;;;;;7.67;5.07;;;;;;;5.22;54.84;101129.72;21009948;28;20258;-77
2023/05/04 04:54:04;;;;;;;8.27;4.97;;;;;;;5.20;54.21;101131.97;21018137;28;20557;-77
2023/05/04 05:04:06;;;;;;;7.87;5.27;;;;;;;4.98;54.90;101133.47;21018935;28;20636;-79
2023/05/04 05:14:09;;;;;;;7.77;5.83;;;;;;;5.39;54.06;101114.53;21023081;28;20249;-78
2023/05/04 05:24:11;;;;;;;9.87;5.73;;;;;;;5.39;54.04;101106.97;20941206;28;20207;-79
2023/05/04 05:34:13;;;;;;;10.63;5.60;;;;;;;5.68;52.43;101125.84;20953188;28;20539;-78
2023/05/04 05:44:15;;;;;;;9.63;5.80;;;;;;;6.25;50.89;101113.91;20900623;28;20273;-78
2023/05/04 05:54:18;;;;;;;5.63;5.13;;;;;;;6.68;51.58;101107.34;20915939;28;20247;-77
2023/05/04 06:04:20;;;;;;;11.40;5.80;;;;;;;7.15;49.46;101088.78;20916376;28;20270;-78
2023/05/04 06:14:22;;;;;;;13.07;6.13;;;;;;;7.40;49.62;101085.63;20926745;28;20219;-78
2023/05/04 06:24:25;;;;;;;10.85;5.68;;;;;;;8.03;46.32;101079.63;20988647;28;20275;-76
2023/05/04 06:34:28;;;;;;;7.00;5.40;;;;;;;8.46;45.16;101066.19;21001162;28;20515;-76
2023/05/04 06:44:34;;;;;;;6.50;4.97;;;;;;;8.43;44.81;101063.16;20995371;28;20215;-77
2023/05/04 06:54:38;;;;;;;5.18;4.57;;;;;;;8.87;44.06;101058.94;20966225;28;20191;-76
2023/05/04 07:04:40;;;;;;;8.03;4.70;;;;;;;8.91;43.68;101051.56;20989046;28;20677;-78
2023/05/04 07:14:42;;;;;;;6.68;5.03;;;;;;;9.34;43.89;101050.00;20972940;28;20223;-78
2023/05/04 07:24:45;;;;;;;11.73;5.23;;;;;;;9.79;43.23;101036.00;20901557;28;20246;-78
2023/05/04 07:34:47;;;;;;;9.35;4.95;;;;;;;9.68;43.60;101026.16;20879267;28;20187;-78
2023/05/04 07:44:50;;;;;;;8.52;4.50;;;;;;;10.98;41.11;101020.88;20892674;28;20220;-78
2023/05/04 07:54:53;;;;;;;7.93;4.40;;;;;;;11.27;40.66;101016.59;20819369;28;20184;-78
2023/05/04 08:04:55;;;;;;;5.95;4.78;;;;;;;11.64;39.87;101003.84;20839238;28;20313;-78
2023/05/04 08:14:57;;;;;;;5.07;3.80;;;;;;;12.38;38.58;101007.22;20861810;28;20223;-78
2023/05/04 08:25:00;;;;;;;2.83;2.50;;;;;;;13.01;35.96;100984.78;21013710;28;20689;-78
2023/05/04 08:35:02;;;;;;;3.25;1.95;;;;;;;13.50;35.08;100980.22;21014629;28;20205;-76
2023/05/04 08:45:05;;;;;;;2.35;1.90;;;;;;;14.40;32.93;100960.41;21011529;28;20219;-77
2023/05/04 08:55:10;;;;;;;5.43;1.85;;;;;;;14.46;32.66;100950.50;21011741;28;20240;-79
2023/05/04 09:05:12;;;;;;;4.30;2.08;;;;;;;14.45;33.22;100948.84;21012243;28;20300;-76
2023/05/04 09:15:19;;;;;;;4.07;2.00;;;;;;;14.93;31.86;100941.50;21009330;28;20223;-77
2023/05/04 09:25:21;;;;;;;3.60;2.00;;;;;;;14.88;33.46;100943.78;20980049;28;20620;-77
2023/05/04 09:35:29;;;;;;;7.97;3.13;;;;;;;15.75;30.70;100933.44;21008406;28;20187;-77
2023/05/04 09:45:43;;;;;;;5.25;1.92;;;;;;;15.91;30.96;100925.78;21001261;28;20215;-77
2023/05/04 09:55:46;;;;;;;3.60;1.73;;;;;;;16.22;31.37;100909.91;20984284;28;20594;-77
2023/05/04 10:05:49;;;;;;;6.22;1.92;;;;;;;16.24;29.64;100888.44;21005218;28;20254;-77
2023/05/04 10:16:29;;;;;;;4.65;2.45;;;;;;;16.12;29.28;100884.84;20985467;28;20254;-77
2023/05/04 10:26:54;;;;;;;4.60;2.10;;;;;;;16.68;29.15;100868.38;20987387;28;20215;-77
2023/05/04 10:36:57;;;;;;;5.15;2.00;;;;;;;16.55;28.69;100852.56;20940660;28;20196;-77
2023/05/04 10:47:05;;;;;;;2.17;1.92;;;;;;;17.14;27.94;100828.63;20922552;28;20211;-77
2023/05/04 10:57:10;;;;;;;5.18;1.90;;;;;;;17.39;27.94;100812.03;20979583;28;20190;-76
2023/05/04 11:07:12;;;;;;;5.10;1.85;;;;;;;18.09;26.87;100788.88;21069987;28;20214;-76
2023/05/04 11:17:15;;;;;;;2.75;1.58;;;;;;;18.32;27.11;100770.47;20989105;28;20241;-76
2023/05/04 11:27:24;;;;;;;4.22;2.05;;;;;;;18.00;25.07;100763.44;21001326;28;20272;-77
2023/05/04 11:37:28;;;;;;;4.03;1.67;;;;;;;18.01;25.43;100756.50;21002603;28;20268;-77
2023/05/04 11:47:30;;;;;;;2.28;2.08;;;;;;;18.18;25.47;100735.94;21002285;28;20187;-77
2023/05/04 11:57:35;;;;;;;2.75;2.00;;;;;;;17.85;26.28;100719.50;20998683;28;20250;-77
2023/05/04 12:07:37;;;;;;;4.82;1.92;;;;;;;19.21;24.32;100707.91;20996199;28;20233;-77
2023/05/04 12:17:40;;;;;;;3.20;1.65;;;;;;;19.72;25.64;100690.81;20996733;28;20541;-77
2023/05/04 12:27:42;;;;;;;5.47;2.03;;;;;;;18.68;24.56;100691.75;20991121;28;20685;-78
2023/05/04 12:37:44;;;;;;;2.78;2.28;;;;;;;19.24;26.65;100679.34;20987633;28;20252;-78
2023/05/04 12:47:47;;;;;;;3.50;2.20;;;;;;;19.49;25.21;100665.25;21001920;28;20245;-77
2023/05/04 12:57:49;;;;;;;8.73;3.50;;;;;;;18.49;28.09;100666.16;21007758;28;20256;-76
2023/05/04 13:07:52;;;;;;;4.82;3.05;;;;;;;19.37;27.80;100642.66;20986859;28;20489;-78
2023/05/04 13:17:54;;;;;;;6.65;3.20;;;;;;;19.44;27.20;100614.88;20991734;28;20219;-78
2023/05/04 13:27:57;;;;;;;4.95;3.20;;;;;;;18.52;28.44;100602.50;20986615;28;20192;-77
2023/05/04 13:37:59;;;;;;;5.53;3.00;;;;;;;19.37;27.88;100579.66;20983956;28;20241;-78
2023/05/04 13:48:02;;;;;;;6.60;3.88;;;;;;;19.11;27.38;100577.78;20984489;28;20195;-77
2023/05/04 13:58:04;;;;;;;3.97;2.83;;;;;;;19.99;28.29;100554.72;21025810;28;20216;-78
2023/05/04 14:08:06;;;;;;;4.47;2.67;;;;;;;19.52;28.31;100541.34;21004543;28;20607;-77
2023/05/04 14:18:08;;;;;;;5.85;2.88;;;;;;;19.63;27.67;100515.63;20945947;28;20235;-75
2023/05/04 14:28:10;;;;;;;7.35;2.33;;;;;;;19.54;28.24;100497.97;20925085;28;20249;-76
2023/05/04 14:38:12;;;;;;;4.68;2.05;;;;;;;19.26;28.60;100505.16;20935783;28;20207;-76
2023/05/04 14:48:15;;;;;;;5.32;2.80;;;;;;;18.91;27.11;100494.25;20919078;28;20188;-76
2023/05/04 14:58:17;;;;;;;4.60;2.10;;;;;;;19.55;28.12;100485.31;20907471;28;20517;-77
2023/05/04 15:08:19;;;;;;;7.75;2.35;;;;;;;19.68;27.42;100464.53;20890528;28;20216;-76
2023/05/04 15:18:24;;;;;;;4.15;2.05;;;;;;;19.71;27.14;100442.81;20964986;28;20227;-76
2023/05/04 15:28:27;;;;;;;11.75;2.53;;;;;;;18.93;28.96;100439.47;20981126;28;20241;-77
2023/05/04 15:38:29;;;;;;;5.35;2.33;;;;;;;19.02;28.01;100437.09;20971559;28;20272;-76
2023/05/04 15:48:31;;;;;;;7.88;2.22;;;;;;;19.08;29.24;100424.06;20988071;28;20229;-76
2023/05/04 15:58:33;;;;;;;2.65;1.52;;;;;;;19.36;27.26;100424.25;20945771;28;21402;-76
2023/05/04 16:08:35;;;;;;;1.83;1.52;;;;;;;18.71;27.84;100409.88;20952395;28;20284;-76
2023/05/04 16:18:37;;;;;;;4.53;1.67;;;;;;;18.57;27.77;100409.78;20979172;28;20246;-76
2023/05/04 16:28:40;;;;;;;3.97;1.63;;;;;;;18.49;29.75;100391.72;21005164;28;20546;-77
2023/05/04 16:38:42;;;;;;;2.35;1.40;;;;;;;19.43;26.69;100400.59;20991021;28;20218;-77
2023/05/04 16:48:44;;;;;;;3.50;1.30;;;;;;;19.28;25.90;100388.25;20994149;28;20217;-76
2023/05/04 16:58:46;;;;;;;2.40;1.90;;;;;;;19.60;25.33;100387.53;20990202;28;20243;-77
2023/05/04 17:08:49;;;;;;;3.28;1.45;;;;;;;19.45;25.50;100378.06;20981206;28;20251;-76
2023/05/04 17:18:51;;;;;;;3.75;1.63;;;;;;;19.62;25.70;100371.59;20933619;28;20223;-76
2023/05/04 17:28:53;;;;;;;1.20;1.08;;;;;;;19.34;25.81;100375.16;20951376;28;20212;-75
2023/05/04 17:38:55;;;;;;;5.13;1.92;;;;;;;19.29;24.76;100387.03;20952020;28;20210;-77
2023/05/04 17:48:57;;;;;;;3.65;1.83;;;;;;;19.14;26.54;100388.13;20965359;28;20967;-77
2023/05/04 17:58:59;;;;;;;3.95;1.83;;;;;;;18.93;25.87;100393.69;21005637;28;20260;-78
2023/05/04 18:09:02;;;;;;;3.33;2.15;;;;;;;18.40;25.92;100400.59;21000850;28;20219;-79
2023/05/04 18:19:07;;;;;;;2.95;1.75;;;;;;;18.32;26.69;100403.81;20958139;28;20223;-78
2023/05/04 18:29:13;;;;;;;2.72;2.25;;;;;;;17.79;28.01;100417.50;20959221;28;20198;-78
2023/05/04 18:39:20;;;;;;;1.88;1.50;;;;;;;18.03;28.02;100426.38;20965486;28;20211;-78
2023/05/04 18:49:22;;;;;;;3.28;1.80;;;;;;;18.04;27.60;100435.75;20964001;28;20574;-81
2023/05/04 18:59:25;;;;;;;7.82;2.15;;;;;;;17.69;29.23;100454.09;20946467;28;20219;-80
2023/05/04 19:09:30;;;;;;;4.97;2.70;;;;;;;17.57;29.89;100451.50;20972128;28;20211;-80
2023/05/04 19:19:36;;;;;;;2.60;2.08;;;;;;;16.99;30.13;100457.53;20893509;28;20256;-77
2023/05/04 19:29:38;;;;;;;2.50;2.00;;;;;;;16.82;29.20;100454.44;20866735;28;20217;-78
2023/05/04 19:39:41;;;;;;;3.60;2.13;;;;;;;16.67;30.72;100450.50;20879315;28;20219;-79
2023/05/04 19:49:46;;;;;;;3.80;1.60;;;;;;;16.75;29.62;100437.19;20866180;28;20260;-78
2023/05/04 19:59:48;;;;;;;3.65;1.92;;;;;;;16.23;31.85;100447.25;20872761;28;20211;-77
2023/05/04 20:09:50;;;;;;;3.63;2.10;;;;;;;15.85;33.22;100448.09;20918417;28;20550;-77
2023/05/04 20:19:52;;;;;;;4.50;2.30;;;;;;;15.84;31.52;100441.59;20949913;28;20223;-76
2023/05/04 20:29:54;;;;;;;2.15;1.92;;;;;;;15.92;32.82;100432.00;20990700;28;20207;-79
2023/05/04 20:39:56;;;;;;;4.25;2.22;;;;;;;15.61;32.28;100425.66;21013164;28;20210;-79
2023/05/04 20:49:59;;;;;;;7.88;2.35;;;;;;;15.54;32.91;100429.16;20999080;28;20187;-79
2023/05/04 21:00:01;;;;;;;3.08;2.28;;;;;;;15.54;33.58;100414.91;21012958;28;20265;-77
2023/05/04 21:10:03;;;;;;;6.47;2.40;;;;;;;15.24;35.30;100411.03;21020045;28;20529;-77
2023/05/04 21:20:06;;;;;;;3.08;2.20;;;;;;;14.93;34.14;100406.22;21009033;28;20276;-77
2023/05/04 21:30:09;;;;;;;3.75;2.42;;;;;;;14.72;35.36;100396.00;21005232;28;20534;-77
2023/05/04 21:40:12;;;;;;;4.80;2.65;;;;;;;14.44;36.99;100379.06;21001568;28;20288;-80
2023/05/04 21:50:14;;;;;;;5.65;2.55;;;;;;;14.47;36.87;100381.16;21004943;28;20249;-77
2023/05/04 22:00:16;;;;;;;6.60;2.58;;;;;;;14.28;36.33;100372.56;20972537;28;20275;-79
2023/05/04 22:10:18;;;;;;;3.70;2.60;;;;;;;14.69;36.15;100370.34;20996036;28;20191;-77
2023/05/04 22:20:22;;;;;;;4.30;2.60;;;;;;;15.39;33.99;100373.16;20994083;28;20520;-77
2023/05/04 22:30:25;;;;;;;5.63;2.55;;;;;;;15.36;32.94;100365.38;20976886;28;20202;-78
2023/05/04 22:40:27;;;;;;;2.90;2.00;;;;;;;15.49;33.13;100372.56;20957187;28;20600;-77
2023/05/04 22:50:29;;;;;;;3.65;2.35;;;;;;;15.20;32.93;100369.09;20966147;28;20191;-78
2023/05/04 23:00:31;;;;;;;5.13;2.20;;;;;;;15.12;33.63;100366.47;20986677;28;20627;-78
2023/05/04 23:10:34;;;;;;;3.22;2.10;;;;;;;15.15;33.58;100363.69;20987228;28;20665;-79
2023/05/04 23:20:36;;;;;;;4.43;2.10;;;;;;;14.81;34.45;100358.84;20967504;28;20230;-77
2023/05/04 23:30:38;;;;;;;2.47;2.25;;;;;;;15.03;34.00;100366.66;20977795;28;20196;-78
2023/05/04 23:40:40;;;;;;;3.90;1.88;;;;;;;15.05;33.87;100352.91;20981480;28;20239;-79
2023/05/04 23:50:53;;;;;;;3.15;2.40;;;;;;;15.35;33.63;100344.66;20979896;28;20199;-78
